Time;durP1;ratioP1;P1;durP2;ratioP2;P2;SDS_P1;SDS_P2;PMS_P1;PMS_P2;Temp;Humidity;BMP_temperature;BMP_pressure;BME280_temperature;BME280_humidity;BME280_pressure;Samples;Min_cycle;Max_cycle;Signal;HPM_P1;HPM_P2
2023/04/05 00:01:52;;;;;;;17.23;16.08;;;8.40;99.90;;;;;;4907374;29;20039;-92
2023/04/05 00:04:22;;;;;;;17.40;15.95;;;8.40;99.90;;;;;;4906859;29;20024;-91
2023/04/05 00:06:51;;;;;;;18.00;16.52;;;8.50;99.90;;;;;;4907166;29;20027;-92
2023/04/05 00:09:19;;;;;;;17.20;15.95;;;8.50;99.90;;;;;;4906884;29;20485;-93
2023/04/05 00:11:46;;;;;;;17.65;15.98;;;8.50;99.90;;;;;;4906467;29;20118;-91
2023/04/05 00:14:13;;;;;;;17.60;16.20;;;8.50;99.90;;;;;;4906526;29;20028;-92
2023/04/05 00:16:40;;;;;;;17.70;16.42;;;8.60;99.90;;;;;;4906628;29;20043;-93
2023/04/05 00:19:07;;;;;;;17.80;16.05;;;8.60;99.90;;;;;;4906935;29;20130;-93
2023/04/05 00:21:33;;;;;;;17.45;16.25;;;8.50;99.90;;;;;;4906953;29;20032;-92
2023/04/05 00:23:59;;;;;;;17.80;16.25;;;8.50;99.90;;;;;;4922599;29;20171;-92
2023/04/05 00:26:26;;;;;;;18.40;16.80;;;8.60;99.90;;;;;;4906005;29;20076;-91
2023/04/05 00:28:57;;;;;;;17.10;15.88;;;8.60;99.90;;;;;;4906845;29;20031;-91
2023/04/05 00:31:23;;;;;;;17.65;16.35;;;8.60;99.90;;;;;;4922043;29;20032;-92
2023/04/05 00:33:50;;;;;;;17.83;16.25;;;8.60;99.90;;;;;;4906288;29;20039;-91
2023/04/05 00:36:19;;;;;;;17.20;16.00;;;8.60;99.90;;;;;;4906185;29;20047;-94
2023/04/05 00:38:48;;;;;;;17.63;16.35;;;8.60;99.90;;;;;;4906819;29;20031;-92
2023/04/05 00:41:15;;;;;;;18.50;16.67;;;8.60;99.90;;;;;;4923809;29;20034;-92
2023/04/05 00:43:42;;;;;;;18.38;16.63;;;8.70;99.90;;;;;;4914332;29;20043;-91
2023/04/05 00:46:09;;;;;;;17.55;16.25;;;8.70;99.90;;;;;;4906065;29;20084;-91
2023/04/05 00:48:37;;;;;;;17.83;16.30;;;8.70;99.90;;;;;;4905706;29;20039;-92
2023/04/05 00:51:08;;;;;;;17.63;16.52;;;8.70;99.90;;;;;;4905800;29;20056;-91
2023/04/05 00:53:36;;;;;;;18.20;16.70;;;8.70;99.90;;;;;;4921879;29;20049;-93
2023/04/05 00:56:03;;;;;;;18.08;16.55;;;8.70;99.90;;;;;;4904280;29;20094;-91
2023/04/05 00:58:30;;;;;;;18.35;16.77;;;8.70;99.90;;;;;;4905875;29;20031;-92
2023/04/05 01:01:08;;;;;;;17.60;16.17;;;8.70;99.90;;;;;;4906276;29;20047;-91
2023/04/05 01:03:37;;;;;;;16.85;15.85;;;8.80;99.90;;;;;;4905590;29;20032;-91
2023/04/05 01:06:26;;;;;;;17.50;16.20;;;8.70;99.90;;;;;;4905707;29;20035;-92
2023/04/05 01:09:22;;;;;;;18.30;16.52;;;8.80;99.90;;;;;;4905645;29;20098;-92
2023/04/05 01:11:56;;;;;;;17.15;15.98;;;8.70;99.90;;;;;;4884689;29;20036;-91
2023/04/05 01:14:22;;;;;;;18.40;16.85;;;8.70;99.90;;;;;;4899341;29;20033;-90
2023/04/05 01:16:50;;;;;;;17.42;16.30;;;8.70;99.90;;;;;;4899368;29;20048;-90
2023/04/05 01:19:17;;;;;;;17.33;15.93;;;8.70;99.90;;;;;;4899908;29;20025;-92
2023/04/05 01:22:12;;;;;;;17.83;16.20;;;8.70;99.90;;;;;;4899344;29;20494;-90
2023/04/05 01:25:09;;;;;;;17.27;15.85;;;8.70;99.90;;;;;;4899055;29;20035;-92
2023/04/05 01:27:57;;;;;;;17.30;15.90;;;8.60;99.90;;;;;;4883582;29;20040;-92
2023/04/05 01:31:15;;;;;;;17.70;16.40;;;8.60;99.90;;;;;;4898827;29;20053;-90
2023/04/05 01:34:10;;;;;;;17.05;15.80;;;8.60;99.90;;;;;;4824512;29;20042;-94
2023/04/05 01:36:40;;;;;;;16.75;15.45;;;8.60;99.90;;;;;;4809081;29;20062;-92
2023/04/05 01:39:11;;;;;;;16.92;15.57;;;8.60;99.90;;;;;;4824267;29;20121;-93
2023/04/05 01:41:39;;;;;;;16.83;15.52;;;8.60;99.90;;;;;;4826261;29;20043;-93
2023/04/05 01:44:06;;;;;;;17.20;15.80;;;8.50;99.90;;;;;;4845504;29;20021;-91
2023/04/05 01:46:33;;;;;;;17.05;15.80;;;8.50;99.90;;;;;;4845105;29;20113;-92
2023/04/05 01:49:00;;;;;;;16.92;15.77;;;8.50;99.90;;;;;;4860461;29;20090;-93
2023/04/05 01:51:27;;;;;;;17.08;15.85;;;8.50;99.90;;;;;;4860674;29;20106;-91
2023/04/05 01:53:53;;;;;;;17.17;15.77;;;8.50;99.90;;;;;;4845160;29;20078;-93
2023/04/05 01:56:20;;;;;;;17.75;16.17;;;8.50;99.90;;;;;;4845012;29;20041;-95
2023/04/05 01:58:46;;;;;;;16.98;15.65;;;8.50;99.90;;;;;;4860633;29;20040;-92
2023/04/05 02:01:15;;;;;;;17.52;16.33;;;8.40;99.90;;;;;;4860561;29;20041;-93
2023/04/05 02:03:42;;;;;;;17.52;16.20;;;8.40;99.90;;;;;;4860403;29;20034;-92
2023/04/05 02:06:09;;;;;;;17.95;16.48;;;8.40;99.90;;;;;;4860350;29;20098;-93
2023/04/05 02:08:36;;;;;;;17.10;15.98;;;8.40;99.90;;;;;;4897816;29;20087;-92
2023/04/05 02:11:03;;;;;;;17.27;16.17;;;8.40;99.90;;;;;;4917848;29;20032;-91
2023/04/05 02:13:30;;;;;;;17.02;15.90;;;8.40;99.90;;;;;;4917439;29;20028;-92
2023/04/05 02:15:56;;;;;;;17.65;16.42;;;8.50;99.90;;;;;;4917018;29;20032;-92
2023/04/05 02:18:28;;;;;;;17.45;16.08;;;8.40;99.90;;;;;;4917190;29;20115;-92
2023/04/05 02:21:05;;;;;;;17.38;15.90;;;8.50;99.90;;;;;;4901303;29;20036;-92
2023/04/05 02:23:32;;;;;;;16.90;15.63;;;8.50;99.90;;;;;;4901666;29;20134;-91
2023/04/05 02:25:59;;;;;;;17.52;16.33;;;8.40;99.90;;;;;;4917194;29;20059;-92
2023/04/05 02:28:26;;;;;;;17.35;16.00;;;8.40;99.90;;;;;;4917022;29;20091;-92
2023/04/05 02:30:54;;;;;;;17.50;16.25;;;8.50;99.90;;;;;;4917275;29;20041;-93
2023/04/05 02:33:21;;;;;;;16.98;15.43;;;8.40;99.90;;;;;;4917148;29;20032;-91
2023/04/05 02:35:50;;;;;;;16.88;15.80;;;8.40;99.90;;;;;;4917057;29;20052;-90
2023/04/05 02:38:17;;;;;;;17.52;15.93;;;8.40;99.90;;;;;;4885951;29;20517;-92
2023/04/05 02:40:50;;;;;;;16.92;15.75;;;8.50;99.90;;;;;;4917429;29;20481;-93
2023/04/05 02:43:17;;;;;;;17.48;16.00;;;8.50;99.90;;;;;;4917013;29;20036;-90
2023/04/05 02:45:47;;;;;;;16.65;15.32;;;8.50;99.90;;;;;;4887974;29;20025;-93
2023/04/05 02:48:18;;;;;;;;;;;8.50;99.90;;;;;;4918045;29;20043;-90
2023/04/05 02:50:49;;;;;;;16.70;15.60;;;8.50;99.90;;;;;;4916896;29;20395;-92
2023/04/05 02:53:17;;;;;;;16.85;15.57;;;8.50;99.90;;;;;;4917195;29;20036;-93
2023/04/05 02:55:58;;;;;;;16.77;15.57;;;8.50;99.90;;;;;;4917534;29;20390;-91
2023/04/05 02:58:25;;;;;;;16.23;15.02;;;8.50;99.90;;;;;;4916605;29;20048;-92
2023/04/05 03:00:54;;;;;;;16.80;15.50;;;8.50;99.90;;;;;;4901294;29;20043;-93
2023/04/05 03:03:29;;;;;;;16.88;15.45;;;8.50;99.90;;;;;;4921529;29;20117;-92
2023/04/05 03:06:00;;;;;;;16.77;15.30;;;8.50;99.90;;;;;;4920712;29;20114;-92
2023/04/05 03:08:35;;;;;;;16.20;15.10;;;8.50;99.90;;;;;;4921567;29;20031;-90
2023/04/05 03:11:05;;;;;;;16.65;15.20;;;8.50;99.90;;;;;;4904916;29;20036;-91
2023/04/05 03:13:33;;;;;;;16.65;15.18;;;8.50;99.90;;;;;;4904760;29;20024;-91
2023/04/05 03:16:03;;;;;;;16.00;14.73;;;8.50;99.90;;;;;;4904487;29;20405;-92
2023/04/05 03:18:29;;;;;;;16.67;15.18;;;8.50;99.90;;;;;;4905150;29;20123;-90
2023/04/05 03:21:03;;;;;;;16.55;15.23;;;8.50;99.90;;;;;;4904866;29;20028;-93
2023/04/05 03:23:34;;;;;;;16.55;15.27;;;8.50;99.90;;;;;;4904309;29;20067;-93
2023/04/05 03:26:02;;;;;;;18.02;15.25;;;8.40;99.90;;;;;;4904618;29;20037;-94
2023/04/05 03:28:33;;;;;;;16.52;14.77;;;8.50;99.90;;;;;;4904257;29;20028;-89
2023/04/05 03:31:03;;;;;;;16.25;14.95;;;8.50;99.90;;;;;;4904455;29;20043;-91
2023/04/05 03:33:30;;;;;;;16.70;15.00;;;8.50;99.90;;;;;;4904645;29;20032;-92
2023/04/05 03:35:58;;;;;;;16.90;15.38;;;8.50;99.90;;;;;;4904608;29;20050;-94
2023/04/05 03:38:27;;;;;;;16.35;15.10;;;8.50;99.90;;;;;;4904452;29;20508;-91
2023/04/05 03:45:25;;;;;;;16.55;15.45;;;8.60;99.90;;;;;;5823400;23;20037;-92
2023/04/05 04:16:04;;;;;;;;;;;;;;;;;;;;;
2023/04/05 04:33:48;;;;;;;17.67;16.48;;;8.70;99.90;;;;;;4905145;29;20039;-94
2023/04/05 04:37:56;;;;;;;;;;;;;;;;;;;;;
2023/04/05 04:40:40;;;;;;;17.77;16.38;;;8.70;99.90;;;;;;4886478;29;20104;-91
2023/04/05 04:43:27;;;;;;;17.60;16.58;;;8.70;99.90;;;;;;4883476;29;20085;-92
2023/04/05 04:46:19;;;;;;;18.60;17.05;;;8.70;99.90;;;;;;4867810;29;20033;-92
2023/04/05 04:49:16;;;;;;;18.40;16.73;;;8.70;99.90;;;;;;4890071;29;20041;-91
2023/04/05 04:51:47;;;;;;;17.70;16.20;;;8.70;99.90;;;;;;4868320;29;20139;-94
2023/04/05 04:54:15;;;;;;;18.27;16.85;;;8.70;99.90;;;;;;4864438;29;20072;-93
2023/04/05 04:56:42;;;;;;;17.33;16.02;;;8.70;99.90;;;;;;4866083;29;20045;-93
2023/04/05 04:59:08;;;;;;;17.58;16.25;;;8.70;99.90;;;;;;4864308;29;20041;-92
2023/04/05 05:01:36;;;;;;;18.33;16.40;;;8.70;99.90;;;;;;4871554;29;20029;-91
2023/04/05 05:04:03;;;;;;;17.42;16.33;;;8.80;99.90;;;;;;4867462;29;20037;-91
2023/04/05 05:06:34;;;;;;;16.92;15.70;;;8.80;99.90;;;;;;4868037;29;20021;-90
2023/04/05 05:09:06;;;;;;;18.73;17.08;;;8.80;99.90;;;;;;4878401;29;20035;-94
2023/04/05 05:11:50;;;;;;;17.67;16.23;;;8.80;99.90;;;;;;4940523;29;20511;-94
2023/04/05 05:14:22;;;;;;;18.23;16.98;;;8.80;99.90;;;;;;4940954;29;20035;-94
2023/04/05 05:16:49;;;;;;;17.67;16.30;;;8.90;99.90;;;;;;4940553;29;20035;-93
2023/04/05 05:19:18;;;;;;;18.08;16.88;;;8.90;99.90;;;;;;4939271;29;20036;-92
2023/04/05 05:21:53;;;;;;;18.00;16.70;;;9.00;99.90;;;;;;4925260;29;20053;-91
2023/04/05 05:24:21;;;;;;;18.05;16.77;;;9.10;99.90;;;;;;4923613;29;20603;-93
2023/04/05 05:29:48;;;;;;;19.58;17.80;;;9.20;99.90;;;;;;4957692;29;20134;-94
2023/04/05 05:32:15;;;;;;;19.98;18.27;;;9.20;99.90;;;;;;4953143;29;20083;-92
2023/04/05 05:34:43;;;;;;;19.55;17.77;;;9.20;99.90;;;;;;4906188;29;20036;-92
2023/04/05 05:37:11;;;;;;;18.50;17.30;;;9.30;99.90;;;;;;4923216;29;20040;-93
2023/04/05 05:39:38;;;;;;;19.85;18.08;;;9.20;99.90;;;;;;4921150;29;20114;-93
2023/04/05 05:42:05;;;;;;;18.55;17.27;;;9.20;99.90;;;;;;4933591;29;20039;-93
2023/04/05 05:44:32;;;;;;;19.40;17.90;;;9.20;99.90;;;;;;4921119;29;20441;-93
2023/04/05 05:46:58;;;;;;;18.23;17.02;;;9.30;99.90;;;;;;4921231;29;20062;-94
2023/04/05 05:49:25;;;;;;;19.52;17.83;;;9.30;99.90;;;;;;4921780;29;20438;-94
2023/04/05 05:51:52;;;;;;;19.50;18.20;;;9.30;99.90;;;;;;4920384;29;20043;-91
2023/04/05 05:54:19;;;;;;;20.70;19.02;;;9.40;99.90;;;;;;4920686;29;20024;-91
2023/04/05 05:56:45;;;;;;;21.13;19.30;;;9.40;99.90;;;;;;4920962;29;20082;-90
2023/04/05 05:59:12;;;;;;;20.48;18.98;;;9.50;99.90;;;;;;4936235;29;20039;-93
2023/04/05 06:01:41;;;;;;;20.17;18.70;;;9.50;99.90;;;;;;4920902;29;20027;-92
2023/04/05 06:04:08;;;;;;;21.58;19.80;;;9.70;99.90;;;;;;4920485;29;20445;-93
2023/04/05 06:09:36;;;;;;;21.38;19.67;;;9.80;99.90;;;;;;5078246;23;20157;-66
2023/04/05 06:12:03;;;;;;;21.70;19.80;;;10.00;99.90;;;;;;4957094;28;20028;-84
2023/04/05 06:14:30;;;;;;;21.60;20.13;;;10.10;99.90;;;;;;4937367;29;20090;-92
2023/04/05 06:16:57;;;;;;;22.20;20.38;;;10.30;99.90;;;;;;4923776;29;20480;-93
2023/04/05 06:19:27;;;;;;;21.88;20.30;;;10.50;99.90;;;;;;4923545;29;20031;-91
2023/04/05 06:21:54;;;;;;;22.52;20.75;;;10.80;99.90;;;;;;4923694;29;20055;-93
2023/04/05 06:24:20;;;;;;;22.83;21.20;;;10.80;99.90;;;;;;4923860;29;20031;-93
2023/04/05 06:26:48;;;;;;;21.25;19.65;;;10.90;99.90;;;;;;4923697;29;20342;-93
2023/04/05 06:29:15;;;;;;;20.20;18.52;;;11.20;99.90;;;;;;4923608;29;20034;-93
2023/04/05 06:31:45;;;;;;;20.20;18.65;;;11.30;99.90;;;;;;4923398;29;20085;-92
2023/04/05 06:34:12;;;;;;;19.65;18.05;;;11.20;99.90;;;;;;4923288;29;20054;-93
2023/04/05 06:36:38;;;;;;;21.02;19.10;;;11.20;99.90;;;;;;4926476;29;20492;-95
2023/04/05 06:39:05;;;;;;;21.33;19.25;;;11.30;99.90;;;;;;4943036;29;20039;-94
2023/04/05 06:41:31;;;;;;;20.38;18.63;;;11.50;99.90;;;;;;4927687;29;20027;-93
2023/04/05 06:43:58;;;;;;;21.50;19.80;;;11.60;99.90;;;;;;4927483;29;20036;-91
2023/04/05 06:46:31;;;;;;;20.13;18.48;;;12.10;99.90;;;;;;4930026;29;20030;-92
2023/04/05 06:49:00;;;;;;;20.58;19.10;;;12.90;99.90;;;;;;4928344;29;20031;-95
2023/04/05 06:51:30;;;;;;;20.77;19.50;;;13.30;99.90;;;;;;4927451;29;20027;-94
2023/04/05 06:54:58;;;;;;;22.20;20.13;;;13.50;99.90;;;;;;4930445;29;20031;-94
2023/04/05 07:02:53;;;;;;;21.42;19.75;;;13.10;99.90;;;;;;5126315;23;20062;-93
2023/04/05 07:05:19;;;;;;;20.67;19.13;;;13.00;99.90;;;;;;5256974;23;20062;-94
2023/04/05 07:08:31;;;;;;;21.13;19.52;;;13.20;99.90;;;;;;4979923;28;20129;-93
2023/04/05 07:10:58;;;;;;;21.75;20.17;;;13.60;99.90;;;;;;4971958;28;20075;-92
2023/04/05 07:13:27;;;;;;;21.58;20.08;;;14.10;99.90;;;;;;4946714;28;20049;-94
2023/04/05 07:16:01;;;;;;;23.15;21.35;;;14.80;99.90;;;;;;4964743;28;20046;-71
2023/04/05 08:53:00;;;;;;;23.35;21.95;;;18.60;99.90;;;;;;6095300;23;20147;31
2023/04/05 08:55:26;;;;;;;23.05;21.35;;;17.70;99.90;;;;;;4866626;29;20552;-93
2023/04/05 08:57:57;;;;;;;22.38;20.98;;;16.50;99.90;;;;;;4883829;29;20103;-93
2023/04/05 09:00:26;;;;;;;22.45;21.10;;;16.00;99.90;;;;;;4884271;29;20033;-94
2023/04/05 09:02:56;;;;;;;23.33;21.83;;;16.40;99.90;;;;;;4884186;29;20397;-93
2023/04/05 09:05:24;;;;;;;22.90;21.40;;;17.10;99.90;;;;;;4868489;29;20028;-94
2023/04/05 09:07:51;;;;;;;23.13;21.58;;;17.10;99.90;;;;;;4868211;29;20035;-94
2023/04/05 09:10:20;;;;;;;22.98;21.55;;;17.10;99.90;;;;;;4870252;29;20508;-93
2023/04/05 09:12:49;;;;;;;22.80;21.35;;;17.10;99.90;;;;;;4882954;29;20113;-93
2023/04/05 09:15:20;;;;;;;23.58;21.88;;;17.20;99.90;;;;;;4883293;29;20032;-93
2023/04/05 09:17:47;;;;;;;22.85;21.48;;;17.10;99.90;;;;;;4883220;29;20467;-93
2023/04/05 09:20:14;;;;;;;22.40;20.98;;;16.40;99.90;;;;;;4883099;29;20025;-92
2023/04/05 09:22:44;;;;;;;23.42;21.92;;;16.70;99.90;;;;;;4883036;29;20437;-92
2023/04/05 09:25:35;;;;;;;22.50;21.10;;;16.50;99.90;;;;;;4883364;29;20044;-94
2023/04/05 09:28:04;;;;;;;22.63;21.23;;;16.30;99.90;;;;;;4882906;29;20518;-94
2023/04/05 09:30:33;;;;;;;22.65;21.25;;;16.20;99.90;;;;;;4882910;29;20068;-93
2023/04/05 09:33:02;;;;;;;23.65;22.05;;;16.50;99.90;;;;;;4882723;29;20116;-93
2023/04/05 09:35:32;;;;;;;22.63;21.20;;;17.00;99.90;;;;;;4883150;29;20060;-93
2023/04/05 09:38:04;;;;;;;23.45;22.05;;;17.40;99.90;;;;;;4883235;29;20048;-92
2023/04/05 09:40:48;;;;;;;22.90;21.53;;;17.60;99.90;;;;;;4883085;29;20029;-94
2023/04/05 09:43:51;;;;;;;22.98;21.55;;;17.80;99.90;;;;;;4883612;29;20176;-92
2023/04/05 09:46:36;;;;;;;23.67;22.20;;;18.10;99.90;;;;;;4842772;29;20075;-93
2023/04/05 09:49:05;;;;;;;23.17;21.70;;;18.20;99.90;;;;;;4811560;29;20075;-93
2023/04/05 09:51:33;;;;;;;23.50;22.05;;;18.20;99.90;;;;;;4824549;29;20039;-94
2023/04/05 09:54:09;;;;;;;24.23;22.50;;;18.00;99.90;;;;;;4831035;29;20576;-93
2023/04/05 09:56:39;;;;;;;23.90;22.30;;;17.90;99.90;;;;;;4839343;29;20361;-92
2023/04/05 09:59:11;;;;;;;23.55;22.15;;;17.80;99.90;;;;;;4824248;29;20035;-92
2023/04/05 10:01:44;;;;;;;23.58;22.02;;;17.90;99.90;;;;;;4824226;29;20030;-93
2023/04/05 10:04:11;;;;;;;23.37;22.07;;;17.70;99.90;;;;;;4839424;29;20428;-94
2023/04/05 10:06:41;;;;;;;22.77;21.45;;;17.30;99.90;;;;;;4824073;29;20031;-93
2023/04/05 10:09:09;;;;;;;22.98;21.35;;;17.30;99.90;;;;;;4838971;29;20099;-92
2023/04/05 10:11:38;;;;;;;23.30;21.70;;;17.10;99.90;;;;;;4838728;29;20512;-94
2023/04/05 10:14:10;;;;;;;23.52;21.98;;;16.90;99.90;;;;;;4824482;29;20030;-93
2023/04/05 10:17:07;;;;;;;23.00;21.55;;;16.70;99.90;;;;;;4839053;29;20057;-93
2023/04/05 10:19:40;;;;;;;23.75;22.27;;;16.50;99.90;;;;;;4824463;29;20066;-92
2023/04/05 10:22:14;;;;;;;22.98;21.58;;;16.20;99.90;;;;;;4859049;29;20041;-94
2023/04/05 10:24:53;;;;;;;23.23;21.60;;;16.20;99.90;;;;;;4867693;29;20085;-92
2023/04/05 10:27:31;;;;;;;23.17;21.77;;;16.30;99.90;;;;;;4867571;29;20033;-93
2023/04/05 10:30:08;;;;;;;24.17;22.58;;;16.10;99.90;;;;;;4899635;29;20509;-94
2023/04/05 10:33:01;;;;;;;23.17;21.83;;;16.00;99.90;;;;;;4898163;29;20080;-93
2023/04/05 10:36:17;;;;;;;23.95;22.23;;;16.00;99.90;;;;;;4868667;29;20052;-92
2023/04/05 10:38:43;;;;;;;;;;;16.10;99.90;;;;;;4846316;29;20057;-93
2023/04/05 10:41:13;;;;;;;23.45;22.05;;;16.20;99.90;;;;;;4845892;29;20002;-92
2023/04/05 10:43:50;;;;;;;23.33;21.92;;;16.60;99.90;;;;;;4846567;29;20061;-93
2023/04/05 10:46:21;;;;;;;23.83;22.30;;;16.70;99.90;;;;;;4844950;29;20586;-92
2023/04/05 10:49:20;;;;;;;24.00;22.10;;;16.60;99.90;;;;;;4846252;29;20033;-91
2023/04/05 10:51:47;;;;;;;23.88;22.08;;;16.80;99.90;;;;;;4808083;29;20058;-93
2023/04/05 10:54:16;;;;;;;23.27;21.80;;;17.00;99.90;;;;;;4831027;29;20505;-94
2023/04/05 10:56:43;;;;;;;23.73;22.33;;;17.00;99.90;;;;;;4828719;29;20129;-92
2023/04/05 10:59:12;;;;;;;23.50;21.90;;;16.90;99.90;;;;;;4829228;29;20042;-93
2023/04/05 11:01:40;;;;;;;23.05;21.70;;;16.80;99.90;;;;;;4828898;29;20042;-92
2023/04/05 11:04:16;;;;;;;22.80;21.33;;;16.90;99.90;;;;;;4832043;29;20038;-93
2023/04/05 11:06:46;;;;;;;26.38;24.30;;;17.00;99.90;;;;;;4850291;29;20030;-93
2023/04/05 11:09:16;;;;;;;23.10;21.60;;;16.70;99.90;;;;;;4850128;29;20065;-92
2023/04/05 11:11:48;;;;;;;23.55;21.85;;;16.70;99.90;;;;;;4851857;29;20026;-90
2023/04/05 11:14:18;;;;;;;23.83;22.00;;;16.70;99.90;;;;;;4877400;29;20044;-93
2023/04/05 11:16:48;;;;;;;23.15;21.85;;;16.70;99.90;;;;;;4871139;29;20102;-91
2023/04/05 11:19:17;;;;;;;23.50;21.95;;;16.30;99.90;;;;;;4886847;29;20017;-92
2023/04/05 11:21:45;;;;;;;23.02;21.73;;;16.30;99.90;;;;;;4880384;29;20045;-93
2023/04/05 11:24:15;;;;;;;24.17;22.60;;;16.20;99.90;;;;;;4870647;29;20052;-91
2023/04/05 11:26:42;;;;;;;23.75;22.13;;;15.90;99.90;;;;;;4873971;29;20135;-91
2023/04/05 11:29:10;;;;;;;23.10;21.70;;;16.10;99.90;;;;;;4905770;29;20111;-92
2023/04/05 11:31:58;;;;;;;23.20;21.75;;;16.20;99.90;;;;;;4918978;29;20047;-91
2023/04/05 11:34:25;;;;;;;23.30;21.95;;;16.30;99.90;;;;;;4901909;29;20402;-91
2023/04/05 11:36:51;;;;;;;27.20;24.83;;;16.30;99.90;;;;;;4903062;29;20111;-90
2023/04/05 11:39:18;;;;;;;28.02;25.38;;;16.30;99.90;;;;;;4887229;29;20112;-92
2023/04/05 11:41:55;;;;;;;23.35;21.95;;;16.50;99.90;;;;;;4901935;29;20035;-91
2023/04/05 11:44:22;;;;;;;;;;;16.80;99.90;;;;;;4917214;29;20029;-91
2023/04/05 11:46:50;;;;;;;25.05;23.02;;;16.70;99.90;;;;;;4901180;29;19911;-93
2023/04/05 11:49:19;;;;;;;24.80;22.80;;;16.50;99.90;;;;;;4901872;29;20409;-92
2023/04/05 11:51:49;;;;;;;25.15;23.25;;;16.40;99.90;;;;;;4886639;29;20462;-92
2023/04/05 11:54:44;;;;;;;23.98;22.00;;;16.30;99.90;;;;;;4901546;29;20084;-95
2023/04/05 11:57:23;;;;;;;23.45;21.67;;;16.40;99.90;;;;;;4902295;29;20075;-94
2023/04/05 11:59:52;;;;;;;23.20;21.60;;;16.10;99.90;;;;;;4917283;29;20033;-91
2023/04/05 12:02:19;;;;;;;22.15;20.95;;;15.90;99.90;;;;;;4901419;29;20032;-93
2023/04/05 12:05:01;;;;;;;23.10;21.73;;;15.50;99.90;;;;;;4901344;29;20060;-94
2023/04/05 12:10:20;;;;;;;23.02;21.52;;;15.30;99.90;;;;;;4901125;29;20037;-92
2023/04/05 12:12:47;;;;;;;23.23;21.63;;;15.30;99.90;;;;;;4901168;29;20052;-92
2023/04/05 12:15:17;;;;;;;23.67;22.08;;;15.20;99.90;;;;;;4905727;29;20055;-93
2023/04/05 12:17:53;;;;;;;24.58;22.75;;;15.10;99.90;;;;;;4915778;29;20409;-92
2023/04/05 12:20:23;;;;;;;25.13;22.90;;;14.80;99.90;;;;;;4884748;29;20036;-93
2023/04/05 12:22:55;;;;;;;23.42;21.88;;;14.80;99.90;;;;;;4900976;29;20039;-93
2023/04/05 12:25:23;;;;;;;23.48;21.88;;;14.90;99.90;;;;;;4916485;29;20049;-93
2023/04/05 12:27:50;;;;;;;23.35;21.65;;;15.00;99.90;;;;;;4916089;29;20084;-92
2023/04/05 12:30:19;;;;;;;22.75;21.05;;;14.90;99.90;;;;;;4916425;29;20036;-93
2023/04/05 12:32:47;;;;;;;23.20;21.60;;;15.00;99.90;;;;;;4956446;23;20055;-93
2023/04/05 12:35:31;;;;;;;24.05;21.80;;;14.90;99.90;;;;;;4960923;28;20479;-94
2023/04/05 12:38:00;;;;;;;23.40;21.60;;;14.90;99.90;;;;;;4960585;28;20050;-91
2023/04/05 12:40:34;;;;;;;23.13;21.60;;;14.80;99.90;;;;;;4976828;28;20357;-92
2023/04/05 12:43:10;;;;;;;23.70;21.73;;;14.70;99.90;;;;;;4960794;28;20027;-92
2023/04/05 12:45:41;;;;;;;22.88;21.30;;;14.60;99.90;;;;;;4974480;28;20030;-94
2023/04/05 12:48:12;;;;;;;23.13;21.50;;;14.60;99.90;;;;;;4942435;29;20170;-93
2023/04/05 12:50:47;;;;;;;21.67;20.33;;;14.60;99.90;;;;;;4927201;29;20031;-90
2023/04/05 12:53:19;;;;;;;20.27;18.88;;;14.40;99.90;;;;;;4957194;29;20061;-92
2023/04/05 12:56:00;;;;;;;20.33;18.80;;;14.30;99.90;;;;;;4957018;29;20031;-93
2023/04/05 12:58:35;;;;;;;20.25;18.88;;;14.20;99.90;;;;;;4956969;29;20039;-91
2023/04/05 13:01:09;;;;;;;20.00;18.70;;;14.20;99.90;;;;;;4965806;28;20030;-93
2023/04/05 13:03:36;;;;;;;19.70;18.35;;;14.20;99.90;;;;;;4960490;28;20035;-92
2023/04/05 13:06:03;;;;;;;20.73;18.83;;;14.40;99.90;;;;;;4960114;28;20057;-91
2023/04/05 13:08:29;;;;;;;20.77;19.17;;;14.30;99.90;;;;;;4959945;28;20058;-93
2023/04/05 13:10:56;;;;;;;21.02;19.10;;;14.30;99.90;;;;;;4959474;28;20081;-91
2023/04/05 13:13:23;;;;;;;20.48;18.67;;;14.00;99.90;;;;;;4959914;28;20542;-90
2023/04/05 13:15:49;;;;;;;20.17;18.52;;;13.70;99.90;;;;;;4943867;28;20515;-91
2023/04/05 13:18:19;;;;;;;20.00;18.60;;;13.70;99.90;;;;;;4961418;28;20121;-90
2023/04/05 13:20:46;;;;;;;20.20;18.70;;;13.40;99.90;;;;;;4960626;28;20022;-92
2023/04/05 13:23:13;;;;;;;20.70;19.30;;;13.50;99.90;;;;;;4944568;28;20031;-93
2023/04/05 13:25:40;;;;;;;20.73;19.33;;;13.60;99.90;;;;;;4960783;28;20115;-91
2023/04/05 13:28:14;;;;;;;21.23;19.63;;;13.60;99.90;;;;;;4947100;28;20027;-93
2023/04/05 13:30:41;;;;;;;21.30;19.87;;;13.60;99.90;;;;;;4946647;28;20034;-92
2023/04/05 13:33:08;;;;;;;21.00;19.60;;;13.60;99.90;;;;;;4962699;28;20054;-92
2023/04/05 13:35:37;;;;;;;20.60;19.10;;;13.50;99.90;;;;;;4960645;28;20035;-93
2023/04/05 13:38:04;;;;;;;20.77;19.23;;;13.50;99.90;;;;;;4959856;28;20121;-94
2023/04/05 13:40:31;;;;;;;34.13;30.35;;;13.20;99.90;;;;;;4961433;28;20030;-93
2023/04/05 13:43:01;;;;;;;20.80;19.23;;;13.10;99.90;;;;;;4961247;28;20031;-93
2023/04/05 13:45:28;;;;;;;21.45;19.70;;;13.10;99.90;;;;;;4959109;28;20041;-94
2023/04/05 13:48:04;;;;;;;21.05;19.58;;;13.00;99.90;;;;;;4959917;28;20469;-93
2023/04/05 13:50:31;;;;;;;21.15;19.65;;;13.00;99.90;;;;;;4943859;28;20027;-93
2023/04/05 13:52:57;;;;;;;21.00;19.25;;;12.90;99.90;;;;;;4960415;28;20034;-94
2023/04/05 13:55:29;;;;;;;20.55;19.15;;;12.70;99.90;;;;;;4963697;23;20055;-93
2023/04/05 13:57:55;;;;;;;18.45;17.20;;;12.50;99.90;;;;;;4922320;29;20050;-92
2023/04/05 14:00:22;;;;;;;18.45;16.95;;;12.50;99.90;;;;;;4908360;29;20028;-91
2023/04/05 14:02:51;;;;;;;17.70;16.05;;;12.20;99.90;;;;;;4922159;29;20042;-94
2023/04/05 14:05:17;;;;;;;17.95;16.65;;;11.90;99.90;;;;;;4903663;29;20482;-93
2023/04/05 14:07:44;;;;;;;16.98;15.73;;;11.90;99.90;;;;;;4889212;29;20038;-93
2023/04/05 14:10:11;;;;;;;16.52;15.07;;;11.90;99.90;;;;;;4887467;29;20482;-94
2023/04/05 14:12:38;;;;;;;14.68;13.35;;;12.10;99.90;;;;;;4886450;29;20486;-92
2023/04/05 14:15:05;;;;;;;14.10;13.00;;;12.10;99.90;;;;;;4885898;29;20036;-93
2023/04/05 14:17:32;;;;;;;14.52;13.43;;;12.10;99.90;;;;;;4887103;29;20111;-93
2023/04/05 14:19:59;;;;;;;13.40;12.40;;;12.00;99.90;;;;;;4886808;29;20044;-93
2023/04/05 14:22:30;;;;;;;13.38;12.00;;;11.90;99.90;;;;;;4886573;29;20028;-95
2023/04/05 14:24:57;;;;;;;12.77;11.60;;;11.90;99.90;;;;;;4886389;29;20039;-93
2023/04/05 14:27:34;;;;;;;11.63;10.55;;;11.90;99.90;;;;;;4886460;29;20040;-96
2023/04/05 14:30:02;;;;;;;11.75;10.65;;;11.90;99.90;;;;;;4887006;29;20036;-93
2023/04/05 14:32:28;;;;;;;11.68;10.55;;;12.00;99.90;;;;;;4886931;29;20486;-92
2023/04/05 14:34:55;;;;;;;11.88;10.77;;;11.90;99.90;;;;;;4886381;29;20032;-93
2023/04/05 14:37:22;;;;;;;10.68;9.77;;;12.00;99.90;;;;;;4886432;29;20036;-92
2023/04/05 14:39:49;;;;;;;11.75;10.18;;;12.20;99.90;;;;;;4886361;29;20028;-93
2023/04/05 14:42:16;;;;;;;12.63;11.38;;;12.10;99.90;;;;;;4886278;29;20039;-93
2023/04/05 14:44:42;;;;;;;12.88;11.77;;;11.90;99.90;;;;;;4886400;29;20112;-93
2023/04/05 14:47:09;;;;;;;11.52;10.57;;;12.00;99.90;;;;;;4886604;29;20028;-93
2023/04/05 14:49:36;;;;;;;16.05;11.63;;;12.00;99.90;;;;;;4886194;29;20115;-91
2023/04/05 14:52:06;;;;;;;13.30;12.20;;;12.00;99.90;;;;;;4886209;29;20024;-92
2023/04/05 14:54:32;;;;;;;12.30;11.30;;;12.00;99.90;;;;;;4891832;29;20032;-92
2023/04/05 14:56:59;;;;;;;13.00;11.88;;;12.10;99.90;;;;;;4904275;29;20079;-93
2023/04/05 14:59:26;;;;;;;13.88;12.73;;;12.10;99.90;;;;;;4905189;29;20055;-94
2023/04/05 15:01:53;;;;;;;13.40;12.40;;;12.20;99.90;;;;;;4920699;29;20119;-94
2023/04/05 15:04:20;;;;;;;15.45;13.88;;;12.20;99.90;;;;;;4889514;29;20080;-92
2023/04/05 15:06:47;;;;;;;15.23;13.93;;;12.20;99.90;;;;;;4920263;29;20028;-92
2023/04/05 15:09:14;;;;;;;14.70;13.57;;;12.30;99.90;;;;;;4904968;29;20036;-93
2023/04/05 15:11:41;;;;;;;14.52;13.35;;;12.30;99.90;;;;;;4920838;29;20052;-92
2023/04/05 15:14:08;;;;;;;14.30;13.13;;;12.20;99.90;;;;;;4924224;29;20465;-94
2023/04/05 15:16:35;;;;;;;14.55;13.20;;;12.20;99.90;;;;;;4908479;29;20032;-93
2023/04/05 15:19:02;;;;;;;14.85;13.40;;;12.30;99.90;;;;;;4907857;29;20039;-92
2023/04/05 15:21:28;;;;;;;15.43;13.95;;;12.20;99.90;;;;;;4907860;29;20027;-91
2023/04/05 15:23:55;;;;;;;14.15;13.05;;;12.20;99.90;;;;;;4907700;29;20032;-92
2023/04/05 15:26:21;;;;;;;15.80;14.27;;;12.30;99.90;;;;;;4909060;29;20027;-92
2023/04/05 15:28:48;;;;;;;15.15;13.90;;;12.30;99.90;;;;;;4907710;29;20485;-93
2023/04/05 15:31:14;;;;;;;14.95;13.60;;;12.40;99.90;;;;;;4908060;29;20473;-93